sensor_id;sensor_type;location;lat;lon;timestamp;pressure;altitude;pressure_sealevel;temperature;humidity
12624;BME280;6377;42.836;23.998;2023-07-29T00:00:52;95505.44;;;19.82;64.39
12624;BME280;6377;42.836;23.998;2023-07-29T00:03:20;95511.44;;;19.72;65.11
12624;BME280;6377;42.836;23.998;2023-07-29T00:05:48;95504.81;;;19.91;64.40
12624;BME280;6377;42.836;23.998;2023-07-29T00:08:17;95505.38;;;19.93;64.36
12624;BME280;6377;42.836;23.998;2023-07-29T00:10:44;95498.00;;;20.00;63.77
12624;BME280;6377;42.836;23.998;2023-07-29T00:13:11;95495.81;;;20.14;63.12
12624;BME280;6377;42.836;23.998;2023-07-29T00:15:38;95490.31;;;20.21;62.87
12624;BME280;6377;42.836;23.998;2023-07-29T00:18:06;95483.56;;;20.18;62.52
12624;BME280;6377;42.836;23.998;2023-07-29T00:20:33;95486.56;;;20.22;62.93
12624;BME280;6377;42.836;23.998;2023-07-29T00:23:00;95487.09;;;20.35;62.26
12624;BME280;6377;42.836;23.998;2023-07-29T00:25:29;95481.72;;;20.35;61.64
12624;BME280;6377;42.836;23.998;2023-07-29T00:27:57;95492.66;;;20.45;61.52
12624;BME280;6377;42.836;23.998;2023-07-29T00:30:24;95492.38;;;20.47;61.55
12624;BME280;6377;42.836;23.998;2023-07-29T00:32:51;95499.72;;;20.51;61.57
12624;BME280;6377;42.836;23.998;2023-07-29T00:35:18;95501.13;;;20.54;61.31
12624;BME280;6377;42.836;23.998;2023-07-29T00:37:46;95448.38;;;20.20;61.10
12624;BME280;6377;42.836;23.998;2023-07-29T00:40:16;95503.88;;;20.59;61.11
12624;BME280;6377;42.836;23.998;2023-07-29T00:42:47;95465.91;;;20.22;61.32
12624;BME280;6377;42.836;23.998;2023-07-29T00:45:16;95506.81;;;20.57;60.97
12624;BME280;6377;42.836;23.998;2023-07-29T00:47:43;95506.22;;;20.55;60.99
12624;BME280;6377;42.836;23.998;2023-07-29T00:50:12;95508.19;;;20.60;60.93
12624;BME280;6377;42.836;23.998;2023-07-29T00:52:40;95509.81;;;20.61;60.77
12624;BME280;6377;42.836;23.998;2023-07-29T00:55:08;95505.03;;;20.63;60.80
12624;BME280;6377;42.836;23.998;2023-07-29T00:57:36;95469.59;;;20.49;60.45
12624;BME280;6377;42.836;23.998;2023-07-29T01:00:06;95475.06;;;20.54;60.42
12624;BME280;6377;42.836;23.998;2023-07-29T01:02:35;95505.50;;;20.77;60.22
12624;BME280;6377;42.836;23.998;2023-07-29T01:05:02;95498.97;;;20.73;60.18
12624;BME280;6377;42.836;23.998;2023-07-29T01:07:33;95498.44;;;20.54;60.80
12624;BME280;6377;42.836;23.998;2023-07-29T01:10:10;95491.97;;;20.38;61.53
12624;BME280;6377;42.836;23.998;2023-07-29T01:12:54;95492.38;;;20.30;61.82
12624;BME280;6377;42.836;23.998;2023-07-29T01:15:30;95494.91;;;20.08;62.90
12624;BME280;6377;42.836;23.998;2023-07-29T01:18:05;95495.25;;;20.12;62.33
12624;BME280;6377;42.836;23.998;2023-07-29T01:20:33;95500.06;;;20.10;62.63
12624;BME280;6377;42.836;23.998;2023-07-29T01:23:01;95496.16;;;20.18;62.32
12624;BME280;6377;42.836;23.998;2023-07-29T01:25:30;95490.94;;;20.11;62.10
12624;BME280;6377;42.836;23.998;2023-07-29T01:27:57;95489.19;;;20.17;62.02
12624;BME280;6377;42.836;23.998;2023-07-29T01:30:30;95485.41;;;20.18;61.83
12624;BME280;6377;42.836;23.998;2023-07-29T01:33:04;95494.56;;;20.17;61.70
12624;BME280;6377;42.836;23.998;2023-07-29T01:35:36;95493.97;;;20.14;61.88
12624;BME280;6377;42.836;23.998;2023-07-29T01:38:12;95495.13;;;19.90;62.02
12624;BME280;6377;42.836;23.998;2023-07-29T01:40:42;95492.75;;;19.77;62.88
12624;BME280;6377;42.836;23.998;2023-07-29T01:43:10;95460.28;;;19.50;62.53
12624;BME280;6377;42.836;23.998;2023-07-29T01:45:38;95498.44;;;19.81;62.71
12624;BME280;6377;42.836;23.998;2023-07-29T01:48:06;95495.13;;;19.90;62.45
12624;BME280;6377;42.836;23.998;2023-07-29T01:50:34;95494.25;;;19.73;62.36
12624;BME280;6377;42.836;23.998;2023-07-29T01:53:01;95502.00;;;19.58;63.60
12624;BME280;6377;42.836;23.998;2023-07-29T01:55:29;95506.50;;;19.41;64.10
12624;BME280;6377;42.836;23.998;2023-07-29T01:57:58;95499.38;;;19.46;64.07
12624;BME280;6377;42.836;23.998;2023-07-29T02:00:25;95502.66;;;19.48;64.14
12624;BME280;6377;42.836;23.998;2023-07-29T02:02:52;95500.00;;;19.65;63.44
12624;BME280;6377;42.836;23.998;2023-07-29T02:05:20;95498.44;;;19.81;62.51
12624;BME280;6377;42.836;23.998;2023-07-29T02:07:47;95491.31;;;19.86;62.35
12624;BME280;6377;42.836;23.998;2023-07-29T02:10:14;95500.69;;;19.72;62.96
12624;BME280;6377;42.836;23.998;2023-07-29T02:12:42;95470.28;;;19.55;62.75
12624;BME280;6377;42.836;23.998;2023-07-29T02:15:10;95496.25;;;19.78;62.64
12624;BME280;6377;42.836;23.998;2023-07-29T02:17:38;95508.38;;;19.80;62.33
12624;BME280;6377;42.836;23.998;2023-07-29T02:20:06;95500.19;;;19.87;62.16
12624;BME280;6377;42.836;23.998;2023-07-29T02:22:33;95498.28;;;19.87;62.04
12624;BME280;6377;42.836;23.998;2023-07-29T02:25:00;95431.13;;;19.54;61.78
12624;BME280;6377;42.836;23.998;2023-07-29T02:27:28;95494.59;;;19.77;62.42
12624;BME280;6377;42.836;23.998;2023-07-29T02:29:55;95490.16;;;19.82;62.19
12624;BME280;6377;42.836;23.998;2023-07-29T02:32:24;95495.84;;;19.86;62.03
12624;BME280;6377;42.836;23.998;2023-07-29T02:34:51;95441.91;;;19.42;62.13
12624;BME280;6377;42.836;23.998;2023-07-29T02:37:19;95495.84;;;19.86;61.92
12624;BME280;6377;42.836;23.998;2023-07-29T02:39:46;95463.69;;;19.74;61.87
12624;BME280;6377;42.836;23.998;2023-07-29T02:42:13;95494.97;;;19.97;61.66
12624;BME280;6377;42.836;23.998;2023-07-29T02:44:40;95478.16;;;19.73;61.90
12624;BME280;6377;42.836;23.998;2023-07-29T02:47:08;95504.81;;;19.63;62.72
12624;BME280;6377;42.836;23.998;2023-07-29T02:49:36;95509.38;;;19.63;62.90
12624;BME280;6377;42.836;23.998;2023-07-29T02:52:04;95470.25;;;19.27;62.90
12624;BME280;6377;42.836;23.998;2023-07-29T02:54:31;95515.06;;;19.66;62.73
12624;BME280;6377;42.836;23.998;2023-07-29T02:56:59;95519.19;;;19.57;62.71
12624;BME280;6377;42.836;23.998;2023-07-29T02:59:26;95519.22;;;19.34;63.42
12624;BME280;6377;42.836;23.998;2023-07-29T03:01:53;95525.28;;;19.18;64.63
12624;BME280;6377;42.836;23.998;2023-07-29T03:04:20;95520.03;;;18.88;65.12
12624;BME280;6377;42.836;23.998;2023-07-29T03:06:50;95524.00;;;18.74;66.78
12624;BME280;6377;42.836;23.998;2023-07-29T03:09:17;95526.22;;;18.54;67.69
12624;BME280;6377;42.836;23.998;2023-07-29T03:11:45;95530.84;;;18.58;67.95
12624;BME280;6377;42.836;23.998;2023-07-29T03:14:12;95526.22;;;18.54;67.67
12624;BME280;6377;42.836;23.998;2023-07-29T03:16:39;95524.66;;;18.34;68.77
12624;BME280;6377;42.836;23.998;2023-07-29T03:19:06;95523.81;;;18.22;70.34
12624;BME280;6377;42.836;23.998;2023-07-29T03:21:34;95515.53;;;18.24;70.61
12624;BME280;6377;42.836;23.998;2023-07-29T03:24:02;95524.09;;;18.56;68.86
12624;BME280;6377;42.836;23.998;2023-07-29T03:26:30;95526.34;;;18.82;67.56
12624;BME280;6377;42.836;23.998;2023-07-29T03:28:57;95534.84;;;18.79;67.36
12624;BME280;6377;42.836;23.998;2023-07-29T03:31:24;95536.94;;;18.77;67.32
12624;BME280;6377;42.836;23.998;2023-07-29T03:33:51;95534.72;;;18.74;67.43
12624;BME280;6377;42.836;23.998;2023-07-29T03:36:18;95520.50;;;18.73;67.05
12624;BME280;6377;42.836;23.998;2023-07-29T03:38:46;95532.97;;;18.91;66.57
12624;BME280;6377;42.836;23.998;2023-07-29T03:41:14;95532.28;;;18.95;66.16
12624;BME280;6377;42.836;23.998;2023-07-29T03:43:42;95515.03;;;18.91;65.91
12624;BME280;6377;42.836;23.998;2023-07-29T03:46:09;95508.66;;;18.81;65.73
12624;BME280;6377;42.836;23.998;2023-07-29T03:48:36;95535.91;;;18.66;66.85
12624;BME280;6377;42.836;23.998;2023-07-29T03:51:03;95536.91;;;18.54;68.11
12624;BME280;6377;42.836;23.998;2023-07-29T03:53:31;95535.31;;;18.76;66.90
12624;BME280;6377;42.836;23.998;2023-07-29T03:55:58;95535.44;;;18.81;66.83
12624;BME280;6377;42.836;23.998;2023-07-29T03:58:26;95542.59;;;18.45;68.85
12624;BME280;6377;42.836;23.998;2023-07-29T04:00:54;95544.19;;;18.35;69.45
12624;BME280;6377;42.836;23.998;2023-07-29T04:03:21;95516.84;;;18.44;68.32
12624;BME280;6377;42.836;23.998;2023-07-29T04:05:48;95537.97;;;18.76;67.57
12624;BME280;6377;42.836;23.998;2023-07-29T04:08:15;95544.88;;;18.95;66.61
12624;BME280;6377;42.836;23.998;2023-07-29T04:10:42;95544.63;;;19.08;66.09
12624;BME280;6377;42.836;23.998;2023-07-29T04:13:10;95540.69;;;19.22;65.37
12624;BME280;6377;42.836;23.998;2023-07-29T04:15:38;95547.63;;;19.35;64.86
12624;BME280;6377;42.836;23.998;2023-07-29T04:18:06;95536.69;;;19.48;64.25
12624;BME280;6377;42.836;23.998;2023-07-29T04:20:33;95542.16;;;19.53;63.98
12624;BME280;6377;42.836;23.998;2023-07-29T04:23:00;95541.00;;;19.61;63.63
12624;BME280;6377;42.836;23.998;2023-07-29T04:25:27;95526.19;;;19.46;64.17
12624;BME280;6377;42.836;23.998;2023-07-29T04:27:55;95533.63;;;19.56;63.94
12624;BME280;6377;42.836;23.998;2023-07-29T04:30:23;95534.81;;;19.60;63.68
12624;BME280;6377;42.836;23.998;2023-07-29T04:32:51;95543.66;;;19.61;64.13
12624;BME280;6377;42.836;23.998;2023-07-29T04:35:19;95534.19;;;19.70;63.41
12624;BME280;6377;42.836;23.998;2023-07-29T04:37:46;95543.50;;;19.67;63.71
12624;BME280;6377;42.836;23.998;2023-07-29T04:40:14;95539.69;;;19.63;63.85
12624;BME280;6377;42.836;23.998;2023-07-29T04:42:41;95538.63;;;19.64;63.86
12624;BME280;6377;42.836;23.998;2023-07-29T04:45:08;95537.50;;;19.60;64.04
12624;BME280;6377;42.836;23.998;2023-07-29T04:47:35;95530.91;;;19.68;63.59
12624;BME280;6377;42.836;23.998;2023-07-29T04:50:05;95533.13;;;19.71;63.66
12624;BME280;6377;42.836;23.998;2023-07-29T04:52:33;95532.34;;;19.58;64.40
12624;BME280;6377;42.836;23.998;2023-07-29T04:55:00;95529.34;;;19.43;65.62
12624;BME280;6377;42.836;23.998;2023-07-29T04:57:27;95537.72;;;19.35;66.20
12624;BME280;6377;42.836;23.998;2023-07-29T04:59:54;95542.06;;;19.36;66.00
12624;BME280;6377;42.836;23.998;2023-07-29T05:02:22;95539.75;;;19.40;65.75
12624;BME280;6377;42.836;23.998;2023-07-29T05:04:49;95541.50;;;19.46;65.58
12624;BME280;6377;42.836;23.998;2023-07-29T05:07:17;95539.50;;;19.30;66.53
12624;BME280;6377;42.836;23.998;2023-07-29T05:09:44;95545.69;;;19.07;67.77
12624;BME280;6377;42.836;23.998;2023-07-29T05:12:12;95546.75;;;18.94;68.96
12624;BME280;6377;42.836;23.998;2023-07-29T05:14:39;95545.22;;;18.75;69.95
12624;BME280;6377;42.836;23.998;2023-07-29T05:17:06;95544.16;;;18.76;69.99
12624;BME280;6377;42.836;23.998;2023-07-29T05:19:33;95547.31;;;18.85;69.39
12624;BME280;6377;42.836;23.998;2023-07-29T05:22:00;95547.81;;;19.05;68.77
12624;BME280;6377;42.836;23.998;2023-07-29T05:24:29;95545.78;;;19.24;68.20
12624;BME280;6377;42.836;23.998;2023-07-29T05:26:56;95536.59;;;19.31;67.21
12624;BME280;6377;42.836;23.998;2023-07-29T05:29:23;95544.16;;;19.34;67.55
12624;BME280;6377;42.836;23.998;2023-07-29T05:31:50;95539.38;;;19.48;66.92
12624;BME280;6377;42.836;23.998;2023-07-29T05:34:18;95541.22;;;19.59;67.01
12624;BME280;6377;42.836;23.998;2023-07-29T05:36:45;95539.00;;;19.56;67.21
12624;BME280;6377;42.836;23.998;2023-07-29T05:39:12;95538.78;;;19.58;67.83
12624;BME280;6377;42.836;23.998;2023-07-29T05:41:41;95439.91;;;18.86;69.02
12624;BME280;6377;42.836;23.998;2023-07-29T05:44:08;95498.34;;;19.24;69.15
12624;BME280;6377;42.836;23.998;2023-07-29T05:46:35;95543.22;;;19.52;69.03
12624;BME280;6377;42.836;23.998;2023-07-29T05:49:02;95532.34;;;19.58;69.08
12624;BME280;6377;42.836;23.998;2023-07-29T05:51:30;95529.19;;;19.62;69.73
12624;BME280;6377;42.836;23.998;2023-07-29T05:53:57;95527.06;;;19.75;67.57
12624;BME280;6377;42.836;23.998;2023-07-29T05:56:24;95528.00;;;19.97;70.40
12624;BME280;6377;42.836;23.998;2023-07-29T05:58:53;95528.69;;;20.04;67.84
12624;BME280;6377;42.836;23.998;2023-07-29T06:01:20;95511.94;;;20.14;68.21
12624;BME280;6377;42.836;23.998;2023-07-29T06:03:48;95518.09;;;20.26;68.06
12624;BME280;6377;42.836;23.998;2023-07-29T06:06:15;95521.44;;;20.33;66.93
12624;BME280;6377;42.836;23.998;2023-07-29T06:08:43;95516.09;;;20.50;65.68
12624;BME280;6377;42.836;23.998;2023-07-29T06:11:10;95433.91;;;20.04;65.48
12624;BME280;6377;42.836;23.998;2023-07-29T06:13:37;95516.59;;;20.63;65.08
12624;BME280;6377;42.836;23.998;2023-07-29T06:16:06;95524.47;;;20.87;69.33
12624;BME280;6377;42.836;23.998;2023-07-29T06:18:33;95510.88;;;21.10;70.11
12624;BME280;6377;42.836;23.998;2023-07-29T06:21:00;95501.00;;;20.99;68.43
12624;BME280;6377;42.836;23.998;2023-07-29T06:23:28;95484.34;;;21.02;67.98
12624;BME280;6377;42.836;23.998;2023-07-29T06:25:55;95480.78;;;21.13;67.13
12624;BME280;6377;42.836;23.998;2023-07-29T06:28:22;95500.22;;;21.37;65.70
12624;BME280;6377;42.836;23.998;2023-07-29T06:30:49;95500.81;;;21.44;65.77
12624;BME280;6377;42.836;23.998;2023-07-29T06:33:18;95503.16;;;21.57;66.32
12624;BME280;6377;42.836;23.998;2023-07-29T06:35:45;95503.06;;;21.73;66.15
12624;BME280;6377;42.836;23.998;2023-07-29T06:38:12;95498.25;;;21.97;64.89
12624;BME280;6377;42.836;23.998;2023-07-29T06:40:39;95498.78;;;22.21;65.92
12624;BME280;6377;42.836;23.998;2023-07-29T06:43:07;95493.84;;;22.40;64.79
12624;BME280;6377;42.836;23.998;2023-07-29T06:45:34;95493.41;;;22.53;63.75
12624;BME280;6377;42.836;23.998;2023-07-29T06:48:01;95498.13;;;22.67;62.41
12624;BME280;6377;42.836;23.998;2023-07-29T06:50:30;95493.06;;;22.76;62.79
12624;BME280;6377;42.836;23.998;2023-07-29T06:52:57;95495.63;;;22.93;63.55
12624;BME280;6377;42.836;23.998;2023-07-29T06:55:24;95498.16;;;23.09;59.15
12624;BME280;6377;42.836;23.998;2023-07-29T06:57:51;95503.59;;;23.14;59.60
12624;BME280;6377;42.836;23.998;2023-07-29T07:00:19;95499.03;;;23.20;59.03
12624;BME280;6377;42.836;23.998;2023-07-29T07:02:46;95500.16;;;23.29;58.49
12624;BME280;6377;42.836;23.998;2023-07-29T07:05:13;95491.06;;;23.40;58.53
12624;BME280;6377;42.836;23.998;2023-07-29T07:07:42;95487.31;;;23.41;57.89
12624;BME280;6377;42.836;23.998;2023-07-29T07:10:09;95481.16;;;23.61;58.35
12624;BME280;6377;42.836;23.998;2023-07-29T07:12:36;95492.56;;;23.68;58.17
12624;BME280;6377;42.836;23.998;2023-07-29T07:15:04;95485.03;;;23.80;58.08
12624;BME280;6377;42.836;23.998;2023-07-29T07:17:32;95483.47;;;23.94;56.80
12624;BME280;6377;42.836;23.998;2023-07-29T07:19:59;95483.22;;;24.06;55.27
12624;BME280;6377;42.836;23.998;2023-07-29T07:22:26;95466.25;;;24.15;56.96
12624;BME280;6377;42.836;23.998;2023-07-29T07:24:55;95476.22;;;24.25;54.94
12624;BME280;6377;42.836;23.998;2023-07-29T07:27:22;95470.59;;;24.36;54.41
12624;BME280;6377;42.836;23.998;2023-07-29T07:29:49;95474.66;;;24.49;54.74
12624;BME280;6377;42.836;23.998;2023-07-29T07:32:17;95474.09;;;24.57;54.33
12624;BME280;6377;42.836;23.998;2023-07-29T07:34:44;95477.38;;;24.74;52.09
12624;BME280;6377;42.836;23.998;2023-07-29T07:37:11;95473.03;;;24.93;52.42
12624;BME280;6377;42.836;23.998;2023-07-29T07:39:38;95469.75;;;25.12;52.10
12624;BME280;6377;42.836;23.998;2023-07-29T07:42:07;95465.69;;;25.24;50.25
12624;BME280;6377;42.836;23.998;2023-07-29T07:44:34;95469.16;;;25.35;49.90
12624;BME280;6377;42.836;23.998;2023-07-29T07:47:02;95440.47;;;25.39;47.94
12624;BME280;6377;42.836;23.998;2023-07-29T07:49:29;95443.94;;;25.54;47.83
12624;BME280;6377;42.836;23.998;2023-07-29T07:51:56;95458.19;;;25.75;48.30
12624;BME280;6377;42.836;23.998;2023-07-29T07:54:23;95467.81;;;26.01;47.05
12624;BME280;6377;42.836;23.998;2023-07-29T07:56:50;95479.13;;;26.18;46.66
12624;BME280;6377;42.836;23.998;2023-07-29T07:59:19;95473.06;;;26.32;47.48
12624;BME280;6377;42.836;23.998;2023-07-29T08:01:46;95473.78;;;26.47;47.39
12624;BME280;6377;42.836;23.998;2023-07-29T08:04:14;95474.00;;;26.51;47.31
12624;BME280;6377;42.836;23.998;2023-07-29T08:06:41;95377.13;;;25.89;46.69
12624;BME280;6377;42.836;23.998;2023-07-29T08:09:08;95468.19;;;26.67;48.24
12624;BME280;6377;42.836;23.998;2023-07-29T08:11:35;95480.75;;;26.92;46.48
12624;BME280;6377;42.836;23.998;2023-07-29T08:14:03;95470.16;;;26.96;45.90
12624;BME280;6377;42.836;23.998;2023-07-29T08:16:31;95468.47;;;27.00;45.73
12624;BME280;6377;42.836;23.998;2023-07-29T08:18:58;95480.28;;;27.14;44.81
12624;BME280;6377;42.836;23.998;2023-07-29T08:21:26;95476.13;;;27.21;44.34
12624;BME280;6377;42.836;23.998;2023-07-29T08:23:54;95475.78;;;27.28;43.84
12624;BME280;6377;42.836;23.998;2023-07-29T08:26:21;95474.03;;;27.42;44.44
12624;BME280;6377;42.836;23.998;2023-07-29T08:28:48;95467.84;;;27.60;44.92
12624;BME280;6377;42.836;23.998;2023-07-29T08:31:15;95465.31;;;27.69;44.62
12624;BME280;6377;42.836;23.998;2023-07-29T08:33:44;95463.47;;;27.64;44.37
12624;BME280;6377;42.836;23.998;2023-07-29T08:36:11;95464.28;;;27.65;44.34
12624;BME280;6377;42.836;23.998;2023-07-29T08:38:39;95465.47;;;27.77;44.88
12624;BME280;6377;42.836;23.998;2023-07-29T08:41:11;95468.56;;;27.90;44.06
12624;BME280;6377;42.836;23.998;2023-07-29T08:43:46;95468.13;;;27.83;44.47
12624;BME280;6377;42.836;23.998;2023-07-29T08:46:19;95467.00;;;27.83;45.82
12624;BME280;6377;42.836;23.998;2023-07-29T08:48:47;95452.41;;;27.79;44.30
12624;BME280;6377;42.836;23.998;2023-07-29T08:51:15;95468.69;;;28.03;44.36
12624;BME280;6377;42.836;23.998;2023-07-29T08:53:44;95460.75;;;28.07;43.27
12624;BME280;6377;42.836;23.998;2023-07-29T08:56:12;95457.97;;;28.12;43.42
12624;BME280;6377;42.836;23.998;2023-07-29T08:58:39;95453.41;;;28.26;42.22
12624;BME280;6377;42.836;23.998;2023-07-29T09:01:07;95450.47;;;28.41;42.64
12624;BME280;6377;42.836;23.998;2023-07-29T09:03:34;95438.09;;;28.49;42.30
12624;BME280;6377;42.836;23.998;2023-07-29T09:06:02;95450.16;;;28.61;41.91
12624;BME280;6377;42.836;23.998;2023-07-29T09:08:30;95440.66;;;28.77;41.23
12624;BME280;6377;42.836;23.998;2023-07-29T09:10:57;95455.91;;;28.92;40.85
12624;BME280;6377;42.836;23.998;2023-07-29T09:13:25;95444.13;;;28.97;41.44
12624;BME280;6377;42.836;23.998;2023-07-29T09:15:54;95446.47;;;29.03;40.14
12624;BME280;6377;42.836;23.998;2023-07-29T09:18:22;95447.19;;;29.22;40.71
12624;BME280;6377;42.836;23.998;2023-07-29T09:20:49;95453.28;;;29.33;39.57
12624;BME280;6377;42.836;23.998;2023-07-29T09:23:18;95453.38;;;29.41;38.35
12624;BME280;6377;42.836;23.998;2023-07-29T09:25:46;95452.59;;;29.55;39.89
12624;BME280;6377;42.836;23.998;2023-07-29T09:28:15;95404.34;;;29.41;39.16
12624;BME280;6377;42.836;23.998;2023-07-29T09:30:45;95444.50;;;29.77;37.34
12624;BME280;6377;42.836;23.998;2023-07-29T09:33:12;95439.00;;;29.82;37.53
12624;BME280;6377;42.836;23.998;2023-07-29T09:35:40;95442.78;;;29.94;37.52
12624;BME280;6377;42.836;23.998;2023-07-29T09:38:07;95424.84;;;29.93;37.40
12624;BME280;6377;42.836;23.998;2023-07-29T09:40:37;95439.28;;;29.94;36.78
12624;BME280;6377;42.836;23.998;2023-07-29T09:43:05;95435.00;;;30.02;37.01
12624;BME280;6377;42.836;23.998;2023-07-29T09:45:34;95432.44;;;30.19;37.33
12624;BME280;6377;42.836;23.998;2023-07-29T09:48:03;95439.09;;;30.26;37.10
12624;BME280;6377;42.836;23.998;2023-07-29T09:50:30;95375.16;;;29.83;36.43
12624;BME280;6377;42.836;23.998;2023-07-29T09:52:58;95439.66;;;30.15;36.94
12624;BME280;6377;42.836;23.998;2023-07-29T09:55:25;95435.16;;;30.19;37.22
12624;BME280;6377;42.836;23.998;2023-07-29T09:57:56;95446.47;;;30.26;36.42
12624;BME280;6377;42.836;23.998;2023-07-29T10:00:26;95445.03;;;30.42;36.32
12624;BME280;6377;42.836;23.998;2023-07-29T10:02:54;95434.84;;;30.56;35.98
12624;BME280;6377;42.836;23.998;2023-07-29T10:05:23;95430.09;;;30.62;35.25
12624;BME280;6377;42.836;23.998;2023-07-29T10:07:50;95430.25;;;30.65;35.67
12624;BME280;6377;42.836;23.998;2023-07-29T10:10:17;95422.03;;;30.79;34.17
12624;BME280;6377;42.836;23.998;2023-07-29T10:12:45;95423.41;;;31.21;35.02
12624;BME280;6377;42.836;23.998;2023-07-29T10:15:14;95434.06;;;31.31;34.07
12624;BME280;6377;42.836;23.998;2023-07-29T10:17:41;95423.25;;;31.17;33.81
12624;BME280;6377;42.836;23.998;2023-07-29T10:20:09;95438.75;;;31.39;34.11
12624;BME280;6377;42.836;23.998;2023-07-29T10:22:38;95429.00;;;31.46;33.43
12624;BME280;6377;42.836;23.998;2023-07-29T10:25:08;95395.81;;;31.70;33.45
12624;BME280;6377;42.836;23.998;2023-07-29T10:27:42;95418.75;;;32.08;33.39
12624;BME280;6377;42.836;23.998;2023-07-29T10:30:15;95407.59;;;31.96;32.72
12624;BME280;6377;42.836;23.998;2023-07-29T10:32:43;95414.47;;;31.85;32.54
12624;BME280;6377;42.836;23.998;2023-07-29T10:35:11;95414.28;;;31.65;33.35
12624;BME280;6377;42.836;23.998;2023-07-29T10:37:39;95410.66;;;31.95;32.51
12624;BME280;6377;42.836;23.998;2023-07-29T10:40:09;95398.94;;;32.03;32.69
12624;BME280;6377;42.836;23.998;2023-07-29T10:42:37;95409.09;;;32.11;32.19
12624;BME280;6377;42.836;23.998;2023-07-29T10:45:20;95402.00;;;32.10;32.21
12624;BME280;6377;42.836;23.998;2023-07-29T10:47:47;95404.28;;;32.34;33.29
12624;BME280;6377;42.836;23.998;2023-07-29T10:50:18;95404.91;;;32.48;32.11
12624;BME280;6377;42.836;23.998;2023-07-29T10:52:49;95401.00;;;32.92;30.36
12624;BME280;6377;42.836;23.998;2023-07-29T10:55:28;95399.22;;;33.59;29.18
12624;BME280;6377;42.836;23.998;2023-07-29T10:58:12;95393.41;;;33.52;29.87
12624;BME280;6377;42.836;23.998;2023-07-29T11:00:42;95395.66;;;33.50;30.27
12624;BME280;6377;42.836;23.998;2023-07-29T11:03:11;95387.94;;;33.44;30.28
12624;BME280;6377;42.836;23.998;2023-07-29T11:05:45;95394.38;;;33.86;30.14
12624;BME280;6377;42.836;23.998;2023-07-29T11:08:24;95373.03;;;33.91;29.99
12624;BME280;6377;42.836;23.998;2023-07-29T11:11:03;95381.66;;;34.31;28.81
12624;BME280;6377;42.836;23.998;2023-07-29T11:13:32;95381.59;;;34.93;27.87
12624;BME280;6377;42.836;23.998;2023-07-29T11:16:01;95384.91;;;34.99;27.98
12624;BME280;6377;42.836;23.998;2023-07-29T11:18:30;95366.81;;;34.65;28.52
12624;BME280;6377;42.836;23.998;2023-07-29T11:20:58;95357.69;;;34.61;29.12
12624;BME280;6377;42.836;23.998;2023-07-29T11:23:30;95344.53;;;34.66;28.90
12624;BME280;6377;42.836;23.998;2023-07-29T11:25:58;95379.06;;;35.00;28.44
12624;BME280;6377;42.836;23.998;2023-07-29T11:28:26;95346.03;;;35.21;27.82
12624;BME280;6377;42.836;23.998;2023-07-29T11:30:54;95374.59;;;35.77;27.23
12624;BME280;6377;42.836;23.998;2023-07-29T11:33:24;95376.16;;;36.02;27.35
12624;BME280;6377;42.836;23.998;2023-07-29T11:35:52;95368.69;;;36.27;27.57
12624;BME280;6377;42.836;23.998;2023-07-29T11:38:20;95332.13;;;36.14;27.69
12624;BME280;6377;42.836;23.998;2023-07-29T11:40:55;95365.16;;;36.66;26.51
12624;BME280;6377;42.836;23.998;2023-07-29T11:43:26;95370.97;;;37.36;26.78
12624;BME280;6377;42.836;23.998;2023-07-29T11:45:53;95344.66;;;37.54;26.93
12624;BME280;6377;42.836;23.998;2023-07-29T11:48:31;95369.97;;;37.91;25.65
12624;BME280;6377;42.836;23.998;2023-07-29T11:50:59;95366.59;;;37.97;25.52
12624;BME280;6377;42.836;23.998;2023-07-29T11:53:28;95363.84;;;38.17;25.35
12624;BME280;6377;42.836;23.998;2023-07-29T11:55:56;95366.19;;;38.14;25.83
12624;BME280;6377;42.836;23.998;2023-07-29T11:58:23;95362.09;;;38.43;25.72
12624;BME280;6377;42.836;23.998;2023-07-29T12:00:51;95358.50;;;38.24;25.44
12624;BME280;6377;42.836;23.998;2023-07-29T12:03:18;95314.19;;;37.19;26.09
12624;BME280;6377;42.836;23.998;2023-07-29T12:05:47;95363.69;;;37.43;26.32
12624;BME280;6377;42.836;23.998;2023-07-29T12:08:15;95350.00;;;37.97;26.56
12624;BME280;6377;42.836;23.998;2023-07-29T12:10:42;95330.88;;;36.95;25.79
12624;BME280;6377;42.836;23.998;2023-07-29T12:13:10;95318.00;;;36.56;26.58
12624;BME280;6377;42.836;23.998;2023-07-29T12:15:38;95345.75;;;37.06;26.10
12624;BME280;6377;42.836;23.998;2023-07-29T12:18:12;95344.16;;;37.05;26.16
12624;BME280;6377;42.836;23.998;2023-07-29T12:20:41;95338.03;;;36.68;26.56
12624;BME280;6377;42.836;23.998;2023-07-29T12:23:10;95341.41;;;37.05;26.16
12624;BME280;6377;42.836;23.998;2023-07-29T12:25:38;95335.38;;;37.31;26.23
12624;BME280;6377;42.836;23.998;2023-07-29T12:28:11;95303.09;;;36.88;25.77
12624;BME280;6377;42.836;23.998;2023-07-29T12:30:47;95277.03;;;36.70;26.06
12624;BME280;6377;42.836;23.998;2023-07-29T12:33:29;95334.31;;;36.76;26.03
12624;BME280;6377;42.836;23.998;2023-07-29T12:35:57;95333.41;;;36.44;27.25
12624;BME280;6377;42.836;23.998;2023-07-29T12:38:27;95335.53;;;37.07;26.28
12624;BME280;6377;42.836;23.998;2023-07-29T12:40:55;95311.78;;;37.18;26.33
12624;BME280;6377;42.836;23.998;2023-07-29T12:43:22;95330.75;;;37.19;26.65
12624;BME280;6377;42.836;23.998;2023-07-29T12:45:49;95335.19;;;37.39;26.18
12624;BME280;6377;42.836;23.998;2023-07-29T12:48:17;95327.91;;;36.88;26.45
12624;BME280;6377;42.836;23.998;2023-07-29T12:50:44;95331.47;;;37.16;25.78
12624;BME280;6377;42.836;23.998;2023-07-29T12:53:11;95324.50;;;37.69;26.41
12624;BME280;6377;42.836;23.998;2023-07-29T12:55:40;95334.53;;;37.93;25.06
12624;BME280;6377;42.836;23.998;2023-07-29T12:58:07;95333.41;;;37.78;26.10
12624;BME280;6377;42.836;23.998;2023-07-29T13:00:34;95327.75;;;38.25;25.59
12624;BME280;6377;42.836;23.998;2023-07-29T13:03:02;95327.16;;;38.74;25.33
12624;BME280;6377;42.836;23.998;2023-07-29T13:05:31;95329.66;;;38.79;25.08